createdAt,value
2019-01-06T00:01:36.610Z,34.77
2019-01-06T00:04:43.705Z,37.07
2019-01-06T00:07:50.806Z,34.17
2019-01-06T00:10:57.892Z,37.23
2019-01-06T00:16:59.598Z,37.87
2019-01-06T00:20:06.697Z,33.90
2019-01-06T00:26:15.029Z,32.00
2019-01-06T00:29:14.640Z,25.57
2019-01-06T00:31:57.193Z,28.77
2019-01-06T00:34:41.924Z,24.17
2019-01-06T00:37:24.314Z,34.00
2019-01-06T00:40:24.649Z,25.30
2019-01-06T00:43:06.882Z,23.83
2019-01-06T00:45:49.677Z,35.20
2019-01-06T00:51:56.607Z,24.70
2019-01-06T00:54:56.679Z,31.93
2019-01-06T00:57:56.587Z,24.83
2019-01-06T01:00:39.027Z,26.67
2019-01-06T01:03:21.614Z,25.17
2019-01-06T01:06:04.773Z,21.63
2019-01-06T01:08:50.246Z,26.60
2019-01-06T01:11:36.685Z,32.93
2019-01-06T01:14:43.801Z,27.20
2019-01-06T01:17:50.893Z,27.53
2019-01-06T01:23:49.229Z,38.27
2019-01-06T01:26:49.647Z,34.77
2019-01-06T01:29:32.311Z,25.33
2019-01-06T01:32:32.161Z,44.03
2019-01-06T01:38:26.773Z,49.43
2019-01-06T01:41:26.771Z,61.77
2019-01-06T01:44:26.576Z,51.93
2019-01-06T01:47:26.912Z,72.77
2019-01-06T01:50:12.249Z,46.43
2019-01-06T01:53:12.595Z,82.93
2019-01-06T01:55:54.635Z,50.10
2019-01-06T01:58:54.483Z,58.87
2019-01-06T02:01:40.030Z,40.10
2019-01-06T02:07:47.676Z,97.63
2019-01-06T02:10:29.690Z,49.30
2019-01-06T02:13:29.944Z,59.43
2019-01-06T02:16:14.835Z,55.17
2019-01-06T02:18:56.933Z,64.13
2019-01-06T02:21:56.797Z,122.67
2019-01-06T02:24:56.308Z,42.90
2019-01-06T02:27:39.187Z,102.70
2019-01-06T02:30:38.866Z,169.73
2019-01-06T02:33:38.724Z,180.17
2019-01-06T02:36:38.334Z,97.80
2019-01-06T02:39:37.773Z,59.67
2019-01-06T02:42:37.359Z,48.80
2019-01-06T02:45:19.863Z,35.43
2019-01-06T02:48:02.336Z,52.57
2019-01-06T02:50:47.369Z,33.40
2019-01-06T02:53:46.867Z,60.87
2019-01-06T02:56:47.069Z,50.07
2019-01-06T02:59:46.741Z,41.07
2019-01-06T03:02:29.060Z,36.43
2019-01-06T03:05:28.636Z,40.83
2019-01-06T03:14:16.451Z,48.53
2019-01-06T03:17:16.271Z,68.53
2019-01-06T03:20:16.478Z,90.67
2019-01-06T03:23:16.452Z,90.83
2019-01-06T03:26:16.855Z,104.40
2019-01-06T03:28:59.266Z,71.37
2019-01-06T03:31:58.866Z,104.73
2019-01-06T03:34:59.870Z,97.20
2019-01-06T03:41:07.125Z,71.10
2019-01-06T03:44:14.222Z,69.77
2019-01-06T03:47:21.217Z,70.03
2019-01-06T03:50:28.383Z,71.97
2019-01-06T03:53:35.443Z,56.57
2019-01-06T03:56:42.455Z,74.93
2019-01-06T04:02:57.954Z,80.33
2019-01-06T04:09:13.504Z,73.23
2019-01-06T04:12:20.612Z,51.97
2019-01-06T04:15:27.675Z,56.33
2019-01-06T04:18:34.705Z,48.70
2019-01-06T04:21:41.793Z,58.27
2019-01-06T04:24:48.870Z,27.40
2019-01-06T04:27:31.599Z,51.37
2019-01-06T04:30:32.578Z,61.77
2019-01-06T04:33:18.133Z,32.20
2019-01-06T04:36:18.459Z,64.60
2019-01-06T04:42:12.568Z,51.53
2019-01-06T04:45:12.541Z,110.00
2019-01-06T04:48:12.490Z,43.47
2019-01-06T04:54:06.002Z,134.83
2019-01-06T04:56:49.252Z,85.80
2019-01-06T04:59:56.376Z,103.60
2019-01-06T05:03:03.434Z,149.83
2019-01-06T05:09:26.550Z,105.00
2019-01-06T05:15:28.344Z,148.03
2019-01-06T05:18:35.371Z,129.57
2019-01-06T05:21:42.483Z,102.03
2019-01-06T05:24:49.550Z,88.30
2019-01-06T05:27:31.826Z,98.80
2019-01-06T05:30:13.951Z,58.93
2019-01-06T05:33:13.769Z,76.33
2019-01-06T05:36:14.057Z,49.90
2019-01-06T05:39:14.293Z,53.77
2019-01-06T05:42:14.275Z,42.27
2019-01-06T05:45:14.611Z,139.57
2019-01-06T05:48:14.732Z,80.57
2019-01-06T05:51:15.040Z,94.13
2019-01-06T05:54:15.312Z,105.07
2019-01-06T05:57:00.331Z,82.77
2019-01-06T05:59:43.034Z,75.47
2019-01-06T06:05:49.585Z,69.67
2019-01-06T06:08:49.128Z,79.47
2019-01-06T06:11:49.015Z,78.77
2019-01-06T06:20:59.900Z,110.77
2019-01-06T06:24:06.998Z,75.43
2019-01-06T06:27:07.228Z,59.53
2019-01-06T06:33:00.717Z,58.47
2019-01-06T06:36:00.953Z,99.83
2019-01-06T06:39:01.375Z,59.33
2019-01-06T06:42:01.675Z,61.67
2019-01-06T06:45:01.362Z,68.13
2019-01-06T06:51:09.016Z,38.58
2019-01-06T06:54:08.843Z,55.53
2019-01-06T06:57:17.860Z,43.10
2019-01-06T07:00:44.219Z,44.30
2019-01-06T07:03:52.866Z,36.60
2019-01-06T07:06:59.942Z,40.90
2019-01-06T07:13:15.475Z,29.43
2019-01-06T07:16:24.123Z,34.53
2019-01-06T07:22:39.699Z,27.23
2019-01-06T07:25:47.304Z,24.77
2019-01-06T07:34:34.882Z,27.20
2019-01-06T07:37:34.816Z,24.67
2019-01-06T07:40:34.774Z,29.40
2019-01-06T07:43:20.130Z,27.53
2019-01-06T07:46:02.758Z,38.20
2019-01-06T07:49:02.498Z,23.10
2019-01-06T07:55:08.987Z,27.17
2019-01-06T07:58:08.997Z,26.40
2019-01-06T08:01:08.613Z,22.17
2019-01-06T08:04:08.368Z,26.70
2019-01-06T08:06:53.796Z,23.03
2019-01-06T08:09:39.379Z,23.13
2019-01-06T08:12:21.879Z,28.40
2019-01-06T08:15:22.293Z,32.70
2019-01-06T08:18:07.606Z,29.73
2019-01-06T08:21:07.286Z,29.20
2019-01-06T08:23:50.012Z,28.30
2019-01-06T08:26:30.602Z,32.27
2019-01-06T08:29:37.622Z,29.63
2019-01-06T08:38:45.112Z,27.57
2019-01-06T08:41:27.211Z,22.93
2019-01-06T08:47:04.104Z,23.40
2019-01-06T08:49:46.820Z,22.10
2019-01-06T08:52:29.329Z,28.13
2019-01-06T08:55:28.792Z,30.00
2019-01-06T08:58:11.916Z,26.60
2019-01-06T09:01:19.023Z,21.80
2019-01-06T09:07:34.618Z,24.57
2019-01-06T09:10:41.642Z,20.30
2019-01-06T09:13:48.740Z,23.60
2019-01-06T09:16:55.744Z,25.57
2019-01-06T09:20:02.799Z,24.60
2019-01-06T09:28:48.754Z,22.07
2019-01-06T09:31:31.322Z,21.07
2019-01-06T09:34:11.765Z,23.30
2019-01-06T09:37:18.801Z,25.67
2019-01-06T09:46:29.674Z,19.00
2019-01-06T09:49:29.178Z,19.00
2019-01-06T09:52:29.499Z,17.57
2019-01-06T09:55:29.570Z,18.97
2019-01-06T09:58:29.953Z,17.67
2019-01-06T10:01:12.648Z,15.33
2019-01-06T10:03:58.394Z,18.10
2019-01-06T10:06:57.914Z,16.70
2019-01-06T10:09:40.696Z,19.13
2019-01-06T10:15:48.191Z,14.03
2019-01-06T10:18:33.284Z,11.70
2019-01-06T10:21:33.694Z,13.13
2019-01-06T10:24:18.590Z,13.67
2019-01-06T10:27:03.872Z,11.83
2019-01-06T10:30:04.118Z,11.27
2019-01-06T10:33:03.616Z,11.20
2019-01-06T10:36:03.334Z,12.50
2019-01-06T10:38:46.031Z,11.97
2019-01-06T10:44:40.243Z,10.77
2019-01-06T10:47:40.055Z,9.00
2019-01-06T10:53:47.155Z,9.33
2019-01-06T10:56:47.329Z,9.97
2019-01-06T10:59:47.218Z,8.90
2019-01-06T11:02:47.258Z,10.07
2019-01-06T11:05:32.568Z,9.50
2019-01-06T11:08:32.907Z,11.27
2019-01-06T11:11:32.513Z,10.10
2019-01-06T11:14:14.646Z,10.63
2019-01-06T11:16:56.771Z,8.95
2019-01-06T11:19:56.384Z,11.37
2019-01-06T11:26:03.614Z,11.73
2019-01-06T11:29:03.163Z,8.70
2019-01-06T11:32:03.256Z,9.60
2019-01-06T11:37:56.429Z,13.50
2019-01-06T11:40:56.423Z,10.57
2019-01-06T11:43:40.906Z,10.57
2019-01-06T11:46:41.360Z,11.67
2019-01-06T11:49:41.722Z,10.60
2019-01-06T11:52:41.695Z,12.33
2019-01-06T11:55:42.061Z,9.47
2019-01-06T11:58:24.492Z,12.10
2019-01-06T12:01:06.601Z,11.23
2019-01-06T12:03:48.869Z,10.80
2019-01-06T12:06:48.633Z,9.03
2019-01-06T12:09:31.183Z,11.83
2019-01-06T12:12:30.843Z,12.73
2019-01-06T12:15:16.317Z,9.03
2019-01-06T12:18:16.313Z,11.07
2019-01-06T12:21:16.190Z,11.37
2019-01-06T12:24:01.255Z,11.70
2019-01-06T12:26:44.064Z,14.30
2019-01-06T12:29:29.003Z,12.47
2019-01-06T12:32:28.736Z,10.73
2019-01-06T12:35:28.578Z,10.07
2019-01-06T12:38:10.745Z,12.50
2019-01-06T12:41:11.024Z,11.57
2019-01-06T12:44:11.241Z,10.60
2019-01-06T12:47:10.845Z,11.03
2019-01-06T12:50:10.746Z,11.93
2019-01-06T12:53:10.629Z,14.97
2019-01-06T12:56:11.073Z,16.37
2019-01-06T12:59:10.863Z,15.43
2019-01-06T13:02:10.747Z,26.03
2019-01-06T13:05:10.727Z,19.67
2019-01-06T13:08:10.248Z,25.03
2019-01-06T13:10:52.743Z,24.47
2019-01-06T13:13:36.918Z,21.00
2019-01-06T13:16:19.421Z,18.57
2019-01-06T13:19:18.966Z,17.20
2019-01-06T13:22:03.215Z,17.83
2019-01-06T13:31:03.309Z,15.97
2019-01-06T13:33:45.551Z,15.63
2019-01-06T13:36:30.665Z,13.77
2019-01-06T13:39:31.032Z,11.27
2019-01-06T13:42:16.514Z,11.87
2019-01-06T13:44:59.154Z,10.13
2019-01-06T13:47:59.110Z,12.70
2019-01-06T13:50:59.208Z,10.40
2019-01-06T13:53:59.297Z,13.17
2019-01-06T13:59:53.418Z,10.43
2019-01-06T14:02:53.617Z,11.60
2019-01-06T14:05:53.963Z,11.53
2019-01-06T14:11:48.302Z,12.40
2019-01-06T14:17:41.579Z,12.07
2019-01-06T14:20:42.089Z,12.47
2019-01-06T14:23:28.854Z,11.07
2019-01-06T14:26:12.933Z,11.23
2019-01-06T14:29:20.020Z,8.50
2019-01-06T14:32:27.216Z,10.07
2019-01-06T14:35:34.237Z,7.43
2019-01-06T14:44:34.417Z,8.93
2019-01-06T14:47:41.511Z,8.53
2019-01-06T14:50:48.633Z,7.80
2019-01-06T14:53:55.714Z,8.07
2019-01-06T14:57:04.613Z,9.93
2019-01-06T15:03:20.251Z,10.30
2019-01-06T15:06:27.328Z,9.73
2019-01-06T15:09:34.745Z,7.33
2019-01-06T15:12:34.899Z,8.40
2019-01-06T15:18:29.194Z,6.27
2019-01-06T15:21:28.745Z,8.00
2019-01-06T15:24:11.271Z,8.33
2019-01-06T15:27:11.071Z,6.13
2019-01-06T15:30:10.812Z,8.33
2019-01-06T15:33:10.855Z,5.87
2019-01-06T15:39:01.410Z,6.33
2019-01-06T15:41:47.027Z,7.20
2019-01-06T15:44:29.129Z,5.97
2019-01-06T15:50:22.411Z,7.20
2019-01-06T15:53:07.939Z,9.70
2019-01-06T15:56:07.821Z,8.63
2019-01-06T15:58:53.447Z,7.67
2019-01-06T16:01:36.862Z,9.50
2019-01-06T16:04:22.477Z,9.03
2019-01-06T16:10:01.575Z,8.53
2019-01-06T16:12:44.247Z,11.03
2019-01-06T16:15:26.540Z,7.43
2019-01-06T16:21:20.453Z,5.60
2019-01-06T16:24:05.292Z,9.40
2019-01-06T16:26:51.512Z,6.23
2019-01-06T16:29:33.684Z,8.83
2019-01-06T16:32:33.359Z,9.67
2019-01-06T16:35:19.574Z,10.80
2019-01-06T16:38:19.619Z,11.53
2019-01-06T16:41:05.168Z,12.57
2019-01-06T16:43:49.748Z,9.43
2019-01-06T16:46:35.523Z,14.27
2019-01-06T16:49:18.250Z,21.90
2019-01-06T16:52:17.886Z,19.63
2019-01-06T16:57:53.797Z,15.57
2019-01-06T17:00:53.795Z,21.80
2019-01-06T17:03:54.135Z,23.57
2019-01-06T17:06:39.457Z,14.83
2019-01-06T17:09:39.831Z,22.27
2019-01-06T17:15:15.205Z,19.83
2019-01-06T17:18:23.326Z,17.87
2019-01-06T17:21:30.444Z,19.97
2019-01-06T17:24:37.521Z,15.60
2019-01-06T17:27:45.656Z,19.40
2019-01-06T17:30:52.734Z,17.17
2019-01-06T17:34:01.402Z,18.53
2019-01-06T17:43:05.086Z,15.63
2019-01-06T17:46:12.169Z,16.13
2019-01-06T17:49:19.328Z,15.90
2019-01-06T17:55:28.207Z,14.30
2019-01-06T17:58:28.452Z,14.37
2019-01-06T18:01:10.619Z,12.90
2019-01-06T18:04:10.885Z,12.70
2019-01-06T18:10:21.840Z,13.30
2019-01-06T18:13:01.382Z,14.20
2019-01-06T18:15:46.422Z,15.70
2019-01-06T18:18:31.118Z,12.93
2019-01-06T18:24:25.314Z,8.60
2019-01-06T18:27:25.482Z,16.43
2019-01-06T18:30:25.968Z,14.23
2019-01-06T18:33:10.970Z,12.33
2019-01-06T18:36:11.274Z,16.37
2019-01-06T18:39:10.990Z,12.37
2019-01-06T18:41:56.308Z,15.93
2019-01-06T18:44:57.230Z,15.17
2019-01-06T18:47:39.631Z,13.03
2019-01-06T18:50:39.926Z,13.97
2019-01-06T18:53:24.885Z,16.57
2019-01-06T18:56:25.016Z,17.70
2019-01-06T18:59:10.268Z,16.00
2019-01-06T19:02:10.990Z,12.43
2019-01-06T19:05:11.979Z,16.73
2019-01-06T19:08:12.781Z,14.37
2019-01-06T19:14:08.301Z,12.03
2019-01-06T19:17:07.920Z,14.53
2019-01-06T19:19:53.232Z,13.07
2019-01-06T19:22:57.937Z,17.10
2019-01-06T19:25:43.771Z,18.47
2019-01-06T19:28:43.700Z,16.40
2019-01-06T19:34:53.098Z,12.53
2019-01-06T19:37:52.829Z,14.87
2019-01-06T19:43:45.777Z,18.13
2019-01-06T19:46:46.050Z,16.87
2019-01-06T19:49:46.059Z,13.73
2019-01-06T19:52:45.677Z,18.60
2019-01-06T20:01:29.019Z,15.10
2019-01-06T20:04:29.434Z,22.13
2019-01-06T20:07:14.139Z,16.27
2019-01-06T20:10:14.814Z,21.57
2019-01-06T20:16:22.196Z,21.60
2019-01-06T20:22:39.128Z,16.57
2019-01-06T20:25:48.742Z,17.60
2019-01-06T20:28:56.797Z,19.33
2019-01-06T20:32:03.904Z,20.73
2019-01-06T20:35:13.366Z,18.07
2019-01-06T20:38:20.513Z,21.90
2019-01-06T20:41:27.654Z,19.77
2019-01-06T20:44:34.748Z,21.20
2019-01-06T20:47:43.385Z,16.93
2019-01-06T20:53:59.007Z,19.27
2019-01-06T20:57:00.492Z,19.00
2019-01-06T20:59:46.084Z,20.40
2019-01-06T21:02:45.875Z,20.00
2019-01-06T21:08:53.018Z,20.40
2019-01-06T21:11:39.660Z,17.77
2019-01-06T21:14:49.208Z,19.27
2019-01-06T21:17:56.298Z,25.80
2019-01-06T21:21:16.261Z,22.33
2019-01-06T21:24:12.712Z,22.87
2019-01-06T21:27:19.827Z,21.20
2019-01-06T21:30:27.694Z,21.37
2019-01-06T21:36:29.431Z,21.23
2019-01-06T21:39:37.101Z,16.50
2019-01-06T21:42:46.468Z,17.13
2019-01-06T21:45:53.567Z,17.20
2019-01-06T21:49:01.004Z,18.40
2019-01-06T21:52:08.085Z,20.23
2019-01-06T22:00:57.442Z,24.67
2019-01-06T22:03:43.623Z,19.80
2019-01-06T22:09:59.789Z,16.30
2019-01-06T22:16:15.390Z,17.77
2019-01-06T22:19:22.527Z,19.53
2019-01-06T22:22:29.638Z,13.60
2019-01-06T22:25:36.746Z,19.00
2019-01-06T22:28:43.833Z,17.30
2019-01-06T22:31:50.951Z,17.17
2019-01-06T22:34:58.344Z,19.33
2019-01-06T22:38:05.459Z,17.90
2019-01-06T22:41:12.550Z,15.87
2019-01-06T22:44:19.651Z,17.90
2019-01-06T22:47:26.767Z,22.93
2019-01-06T22:50:33.851Z,21.30
2019-01-06T22:53:40.954Z,20.40
2019-01-06T23:02:51.555Z,20.33
2019-01-06T23:05:58.635Z,18.93
2019-01-06T23:09:05.695Z,22.40
2019-01-06T23:12:12.765Z,20.33
2019-01-06T23:15:19.811Z,17.57
2019-01-06T23:18:26.823Z,23.00
2019-01-06T23:24:47.808Z,17.40
2019-01-06T23:33:48.085Z,22.90
2019-01-06T23:36:55.107Z,17.70
2019-01-06T23:40:02.177Z,15.10
2019-01-06T23:42:49.925Z,19.53
2019-01-06T23:45:56.962Z,16.80
2019-01-06T23:49:04.049Z,18.30
2019-01-06T23:52:11.061Z,21.23
2019-01-06T23:57:48.780Z,16.00
